sensor_id;sensor_type;location;lat;lon;timestamp;temperature;humidity
802;DHT22;383;48.766;9.270;2023-04-15T06:16:36;5.80;90.80
802;DHT22;383;48.766;9.270;2023-04-15T06:19:04;5.50;92.00
802;DHT22;383;48.766;9.270;2023-04-15T06:21:31;5.70;90.70
802;DHT22;383;48.766;9.270;2023-04-15T06:23:58;5.80;90.10
802;DHT22;383;48.766;9.270;2023-04-15T06:26:25;5.90;89.90
802;DHT22;383;48.766;9.270;2023-04-15T06:28:52;6.10;89.60
802;DHT22;383;48.766;9.270;2023-04-15T06:31:19;6.30;88.80
802;DHT22;383;48.766;9.270;2023-04-15T06:33:46;6.50;88.40
802;DHT22;383;48.766;9.270;2023-04-15T06:36:14;6.60;88.10
802;DHT22;383;48.766;9.270;2023-04-15T06:38:40;6.80;87.70
802;DHT22;383;48.766;9.270;2023-04-15T06:41:07;7.00;85.10
802;DHT22;383;48.766;9.270;2023-04-15T06:43:34;7.10;85.50
802;DHT22;383;48.766;9.270;2023-04-15T06:46:00;7.20;85.70
802;DHT22;383;48.766;9.270;2023-04-15T06:48:27;7.50;83.70
802;DHT22;383;48.766;9.270;2023-04-15T06:50:54;7.60;83.50
802;DHT22;383;48.766;9.270;2023-04-15T06:53:22;7.60;82.70
802;DHT22;383;48.766;9.270;2023-04-15T06:55:49;7.70;83.10
802;DHT22;383;48.766;9.270;2023-04-15T06:58:15;7.80;82.60
802;DHT22;383;48.766;9.270;2023-04-15T07:00:42;8.00;81.40
802;DHT22;383;48.766;9.270;2023-04-15T07:03:10;8.10;81.60
802;DHT22;383;48.766;9.270;2023-04-15T07:05:37;8.20;81.80
802;DHT22;383;48.766;9.270;2023-04-15T07:08:04;8.20;79.80
802;DHT22;383;48.766;9.270;2023-04-15T07:10:32;8.10;80.30
802;DHT22;383;48.766;9.270;2023-04-15T07:12:59;8.10;80.40
802;DHT22;383;48.766;9.270;2023-04-15T07:15:26;8.10;78.90
802;DHT22;383;48.766;9.270;2023-04-15T07:17:53;8.00;79.10
802;DHT22;383;48.766;9.270;2023-04-15T07:20:20;8.10;79.50
802;DHT22;383;48.766;9.270;2023-04-15T07:22:47;8.10;79.70
802;DHT22;383;48.766;9.270;2023-04-15T07:25:14;8.20;79.70
802;DHT22;383;48.766;9.270;2023-04-15T07:27:43;8.10;80.60
802;DHT22;383;48.766;9.270;2023-04-15T07:30:10;8.10;80.60
802;DHT22;383;48.766;9.270;2023-04-15T07:32:37;8.20;79.80
802;DHT22;383;48.766;9.270;2023-04-15T07:35:05;8.20;79.10
802;DHT22;383;48.766;9.270;2023-04-15T07:37:32;8.40;79.30
802;DHT22;383;48.766;9.270;2023-04-15T07:39:58;8.60;78.60
802;DHT22;383;48.766;9.270;2023-04-15T07:42:25;8.70;78.70
802;DHT22;383;48.766;9.270;2023-04-15T07:44:55;8.90;77.30
802;DHT22;383;48.766;9.270;2023-04-15T07:47:22;9.10;77.00
802;DHT22;383;48.766;9.270;2023-04-15T07:49:49;9.30;76.10
802;DHT22;383;48.766;9.270;2023-04-15T07:52:16;9.40;75.20
802;DHT22;383;48.766;9.270;2023-04-15T07:54:44;9.60;75.30
802;DHT22;383;48.766;9.270;2023-04-15T07:57:10;9.80;75.70
802;DHT22;383;48.766;9.270;2023-04-15T07:59:37;10.00;74.50
802;DHT22;383;48.766;9.270;2023-04-15T08:02:05;10.20;75.30
802;DHT22;383;48.766;9.270;2023-04-15T08:04:32;10.40;73.00
802;DHT22;383;48.766;9.270;2023-04-15T08:06:59;10.70;72.50
802;DHT22;383;48.766;9.270;2023-04-15T08:09:26;10.80;72.40
802;DHT22;383;48.766;9.270;2023-04-15T08:11:52;11.00;71.60
802;DHT22;383;48.766;9.270;2023-04-15T08:14:19;11.10;69.70
802;DHT22;383;48.766;9.270;2023-04-15T08:16:46;11.30;71.90
802;DHT22;383;48.766;9.270;2023-04-15T08:19:14;11.30;70.70
802;DHT22;383;48.766;9.270;2023-04-15T08:21:41;11.40;70.50
802;DHT22;383;48.766;9.270;2023-04-15T08:24:08;11.60;70.00
802;DHT22;383;48.766;9.270;2023-04-15T08:26:35;11.60;69.70
802;DHT22;383;48.766;9.270;2023-04-15T08:29:02;11.80;69.70
802;DHT22;383;48.766;9.270;2023-04-15T08:31:29;11.90;69.20
802;DHT22;383;48.766;9.270;2023-04-15T08:33:56;12.10;69.60
802;DHT22;383;48.766;9.270;2023-04-15T08:36:25;12.40;68.20
802;DHT22;383;48.766;9.270;2023-04-15T08:38:52;12.60;67.40
802;DHT22;383;48.766;9.270;2023-04-15T08:41:21;12.80;66.70
802;DHT22;383;48.766;9.270;2023-04-15T08:43:52;13.00;64.70
802;DHT22;383;48.766;9.270;2023-04-15T08:46:20;13.20;63.00
802;DHT22;383;48.766;9.270;2023-04-15T08:48:48;13.50;63.80
802;DHT22;383;48.766;9.270;2023-04-15T08:51:15;13.50;63.50
802;DHT22;383;48.766;9.270;2023-04-15T08:53:44;13.40;60.50
802;DHT22;383;48.766;9.270;2023-04-15T08:56:13;13.40;60.90
802;DHT22;383;48.766;9.270;2023-04-15T08:58:41;13.60;61.50
802;DHT22;383;48.766;9.270;2023-04-15T09:01:07;13.70;59.60
802;DHT22;383;48.766;9.270;2023-04-15T09:03:35;13.80;58.50
802;DHT22;383;48.766;9.270;2023-04-15T09:06:03;13.90;58.60
802;DHT22;383;48.766;9.270;2023-04-15T09:08:30;14.00;58.60
802;DHT22;383;48.766;9.270;2023-04-15T09:10:58;14.10;58.30
802;DHT22;383;48.766;9.270;2023-04-15T09:13:25;14.30;58.00
802;DHT22;383;48.766;9.270;2023-04-15T09:15:52;14.50;58.30
802;DHT22;383;48.766;9.270;2023-04-15T09:18:29;14.70;56.70
802;DHT22;383;48.766;9.270;2023-04-15T09:21:03;14.80;57.20
802;DHT22;383;48.766;9.270;2023-04-15T09:23:31;14.90;55.50
802;DHT22;383;48.766;9.270;2023-04-15T09:25:59;15.00;55.70
802;DHT22;383;48.766;9.270;2023-04-15T09:28:27;15.10;58.20
802;DHT22;383;48.766;9.270;2023-04-15T09:30:57;15.30;55.40
802;DHT22;383;48.766;9.270;2023-04-15T09:33:24;15.50;54.70
802;DHT22;383;48.766;9.270;2023-04-15T09:35:59;15.70;54.00
802;DHT22;383;48.766;9.270;2023-04-15T09:38:26;16.00;52.60
802;DHT22;383;48.766;9.270;2023-04-15T09:40:53;16.20;53.40
802;DHT22;383;48.766;9.270;2023-04-15T09:43:22;16.40;53.90
802;DHT22;383;48.766;9.270;2023-04-15T09:45:51;16.50;51.90
802;DHT22;383;48.766;9.270;2023-04-15T09:48:19;16.50;52.80
802;DHT22;383;48.766;9.270;2023-04-15T09:50:47;16.70;53.30
802;DHT22;383;48.766;9.270;2023-04-15T09:53:18;16.70;54.00
802;DHT22;383;48.766;9.270;2023-04-15T09:55:48;16.90;52.90
802;DHT22;383;48.766;9.270;2023-04-15T09:58:21;17.10;51.90
802;DHT22;383;48.766;9.270;2023-04-15T10:00:49;17.10;51.50
802;DHT22;383;48.766;9.270;2023-04-15T10:03:19;16.80;51.80
802;DHT22;383;48.766;9.270;2023-04-15T10:05:48;16.80;51.80
802;DHT22;383;48.766;9.270;2023-04-15T10:08:18;16.70;51.00
802;DHT22;383;48.766;9.270;2023-04-15T10:10:47;16.50;52.00
802;DHT22;383;48.766;9.270;2023-04-15T10:13:16;16.40;52.60
802;DHT22;383;48.766;9.270;2023-04-15T10:15:49;16.20;52.00
802;DHT22;383;48.766;9.270;2023-04-15T10:18:18;16.00;52.00
802;DHT22;383;48.766;9.270;2023-04-15T10:20:47;15.80;51.80
802;DHT22;383;48.766;9.270;2023-04-15T10:23:14;15.70;53.00
802;DHT22;383;48.766;9.270;2023-04-15T10:25:41;15.60;53.30
802;DHT22;383;48.766;9.270;2023-04-15T10:28:08;15.60;54.10
802;DHT22;383;48.766;9.270;2023-04-15T10:30:35;15.80;54.60
802;DHT22;383;48.766;9.270;2023-04-15T10:33:04;15.90;52.90
802;DHT22;383;48.766;9.270;2023-04-15T10:35:32;16.00;53.30
802;DHT22;383;48.766;9.270;2023-04-15T10:37:59;16.10;52.30
802;DHT22;383;48.766;9.270;2023-04-15T10:40:27;16.20;53.10
802;DHT22;383;48.766;9.270;2023-04-15T10:42:57;16.20;53.30
802;DHT22;383;48.766;9.270;2023-04-15T10:45:28;16.20;52.90
802;DHT22;383;48.766;9.270;2023-04-15T10:47:57;16.30;53.10
802;DHT22;383;48.766;9.270;2023-04-15T10:50:31;16.20;50.40
802;DHT22;383;48.766;9.270;2023-04-15T10:52:58;16.20;51.20
802;DHT22;383;48.766;9.270;2023-04-15T10:55:31;16.20;52.10
802;DHT22;383;48.766;9.270;2023-04-15T10:57:59;16.20;52.50
802;DHT22;383;48.766;9.270;2023-04-15T11:00:28;16.50;51.60
802;DHT22;383;48.766;9.270;2023-04-15T11:02:56;16.60;52.00
802;DHT22;383;48.766;9.270;2023-04-15T11:05:51;16.80;50.40
802;DHT22;383;48.766;9.270;2023-04-15T11:08:18;16.70;52.10
802;DHT22;383;48.766;9.270;2023-04-15T11:10:54;16.60;50.90
802;DHT22;383;48.766;9.270;2023-04-15T11:13:25;16.50;51.60
802;DHT22;383;48.766;9.270;2023-04-15T11:15:57;16.40;50.50
802;DHT22;383;48.766;9.270;2023-04-15T11:18:27;16.20;50.00
802;DHT22;383;48.766;9.270;2023-04-15T11:20:57;16.20;51.00
802;DHT22;383;48.766;9.270;2023-04-15T11:23:29;16.20;51.30
802;DHT22;383;48.766;9.270;2023-04-15T11:25:57;16.20;49.70
802;DHT22;383;48.766;9.270;2023-04-15T11:28:25;16.30;49.80
802;DHT22;383;48.766;9.270;2023-04-15T11:30:51;16.50;51.20
802;DHT22;383;48.766;9.270;2023-04-15T11:33:20;16.70;51.30
802;DHT22;383;48.766;9.270;2023-04-15T11:35:48;16.80;50.20
802;DHT22;383;48.766;9.270;2023-04-15T11:38:16;16.70;48.90
802;DHT22;383;48.766;9.270;2023-04-15T11:40:44;16.90;49.90
802;DHT22;383;48.766;9.270;2023-04-15T11:43:12;17.00;49.80
802;DHT22;383;48.766;9.270;2023-04-15T11:45:48;17.00;50.70
802;DHT22;383;48.766;9.270;2023-04-15T11:48:16;17.00;50.30
802;DHT22;383;48.766;9.270;2023-04-15T11:50:44;16.80;51.30
802;DHT22;383;48.766;9.270;2023-04-15T11:53:12;16.60;52.30
802;DHT22;383;48.766;9.270;2023-04-15T11:55:44;16.30;54.40
802;DHT22;383;48.766;9.270;2023-04-15T11:58:12;15.90;56.00
802;DHT22;383;48.766;9.270;2023-04-15T12:00:40;15.50;61.10
802;DHT22;383;48.766;9.270;2023-04-15T12:03:28;15.00;64.70
802;DHT22;383;48.766;9.270;2023-04-15T12:06:09;14.60;67.20
802;DHT22;383;48.766;9.270;2023-04-15T12:08:59;14.30;68.40
802;DHT22;383;48.766;9.270;2023-04-15T12:11:33;14.10;68.80
802;DHT22;383;48.766;9.270;2023-04-15T12:14:07;14.10;67.80
802;DHT22;383;48.766;9.270;2023-04-15T12:16:35;14.20;65.90
802;DHT22;383;48.766;9.270;2023-04-15T12:19:06;14.40;64.60
802;DHT22;383;48.766;9.270;2023-04-15T12:21:36;14.60;61.10
802;DHT22;383;48.766;9.270;2023-04-15T12:24:04;14.60;60.50
802;DHT22;383;48.766;9.270;2023-04-15T12:26:35;14.60;59.80
802;DHT22;383;48.766;9.270;2023-04-15T12:29:04;14.50;59.00
802;DHT22;383;48.766;9.270;2023-04-15T12:31:31;14.30;58.70
802;DHT22;383;48.766;9.270;2023-04-15T12:33:59;14.10;59.70
802;DHT22;383;48.766;9.270;2023-04-15T12:36:26;13.70;68.40
802;DHT22;383;48.766;9.270;2023-04-15T12:38:54;13.00;73.40
802;DHT22;383;48.766;9.270;2023-04-15T12:41:21;12.50;77.00
802;DHT22;383;48.766;9.270;2023-04-15T12:43:50;11.90;81.60
802;DHT22;383;48.766;9.270;2023-04-15T12:46:17;11.40;84.70
802;DHT22;383;48.766;9.270;2023-04-15T12:48:44;11.10;86.70
802;DHT22;383;48.766;9.270;2023-04-15T12:51:11;10.70;88.10
802;DHT22;383;48.766;9.270;2023-04-15T12:53:38;10.60;90.20
802;DHT22;383;48.766;9.270;2023-04-15T12:56:05;10.30;90.30
802;DHT22;383;48.766;9.270;2023-04-15T12:58:32;10.00;89.80
802;DHT22;383;48.766;9.270;2023-04-15T13:01:00;9.80;89.80
802;DHT22;383;48.766;9.270;2023-04-15T13:03:27;9.80;91.90
802;DHT22;383;48.766;9.270;2023-04-15T13:05:54;9.90;90.40
802;DHT22;383;48.766;9.270;2023-04-15T13:08:22;10.00;92.70
802;DHT22;383;48.766;9.270;2023-04-15T13:10:49;10.20;90.30
802;DHT22;383;48.766;9.270;2023-04-15T13:13:16;10.30;89.20
802;DHT22;383;48.766;9.270;2023-04-15T13:15:42;10.50;87.20
802;DHT22;383;48.766;9.270;2023-04-15T13:18:11;10.60;83.90
802;DHT22;383;48.766;9.270;2023-04-15T13:20:38;10.80;83.20
802;DHT22;383;48.766;9.270;2023-04-15T13:23:05;10.90;83.10
802;DHT22;383;48.766;9.270;2023-04-15T13:25:31;11.10;81.90
802;DHT22;383;48.766;9.270;2023-04-15T13:27:58;11.40;83.10
802;DHT22;383;48.766;9.270;2023-04-15T13:30:25;11.60;85.10
802;DHT22;383;48.766;9.270;2023-04-15T13:32:52;11.80;83.70
802;DHT22;383;48.766;9.270;2023-04-15T13:35:20;12.20;79.90
802;DHT22;383;48.766;9.270;2023-04-15T13:37:47;12.60;73.70
802;DHT22;383;48.766;9.270;2023-04-15T13:40:14;12.90;75.40
802;DHT22;383;48.766;9.270;2023-04-15T13:42:41;13.10;73.70
802;DHT22;383;48.766;9.270;2023-04-15T13:45:08;13.30;76.00
802;DHT22;383;48.766;9.270;2023-04-15T13:47:35;13.50;69.60
802;DHT22;383;48.766;9.270;2023-04-15T13:50:02;13.70;70.00
802;DHT22;383;48.766;9.270;2023-04-15T13:52:30;13.80;67.80
802;DHT22;383;48.766;9.270;2023-04-15T13:54:57;13.90;63.00
802;DHT22;383;48.766;9.270;2023-04-15T13:57:24;13.80;63.80
802;DHT22;383;48.766;9.270;2023-04-15T13:59:51;13.80;60.50
802;DHT22;383;48.766;9.270;2023-04-15T14:02:20;13.80;59.10
802;DHT22;383;48.766;9.270;2023-04-15T14:04:48;13.70;60.20
802;DHT22;383;48.766;9.270;2023-04-15T14:07:14;13.80;59.30
802;DHT22;383;48.766;9.270;2023-04-15T14:09:43;13.80;57.60
802;DHT22;383;48.766;9.270;2023-04-15T14:12:10;13.80;57.00
802;DHT22;383;48.766;9.270;2023-04-15T14:14:36;13.70;56.00
802;DHT22;383;48.766;9.270;2023-04-15T14:17:03;13.70;58.70
802;DHT22;383;48.766;9.270;2023-04-15T14:19:34;13.70;54.50
802;DHT22;383;48.766;9.270;2023-04-15T14:22:01;13.70;56.20
802;DHT22;383;48.766;9.270;2023-04-15T14:24:27;13.80;55.60
802;DHT22;383;48.766;9.270;2023-04-15T14:26:56;13.90;54.50
802;DHT22;383;48.766;9.270;2023-04-15T14:29:23;13.90;55.00
802;DHT22;383;48.766;9.270;2023-04-15T14:31:49;13.80;53.00
802;DHT22;383;48.766;9.270;2023-04-15T14:34:16;13.80;55.40
802;DHT22;383;48.766;9.270;2023-04-15T14:36:43;13.80;53.60
802;DHT22;383;48.766;9.270;2023-04-15T14:39:10;13.80;55.90
802;DHT22;383;48.766;9.270;2023-04-15T14:41:37;13.60;53.50
802;DHT22;383;48.766;9.270;2023-04-15T14:44:05;13.60;54.70
802;DHT22;383;48.766;9.270;2023-04-15T14:46:33;13.50;53.40
802;DHT22;383;48.766;9.270;2023-04-15T14:49:00;13.50;53.90
802;DHT22;383;48.766;9.270;2023-04-15T14:51:27;13.40;54.00
802;DHT22;383;48.766;9.270;2023-04-15T14:53:54;13.30;54.60
802;DHT22;383;48.766;9.270;2023-04-15T14:56:21;13.20;56.10
802;DHT22;383;48.766;9.270;2023-04-15T14:58:47;13.00;55.60
802;DHT22;383;48.766;9.270;2023-04-15T15:01:18;13.00;56.70
802;DHT22;383;48.766;9.270;2023-04-15T15:03:45;13.00;56.50
802;DHT22;383;48.766;9.270;2023-04-15T15:06:12;12.90;57.40
802;DHT22;383;48.766;9.270;2023-04-15T15:08:39;12.80;58.10
802;DHT22;383;48.766;9.270;2023-04-15T15:11:06;12.80;57.70
802;DHT22;383;48.766;9.270;2023-04-15T15:13:32;12.80;57.70
802;DHT22;383;48.766;9.270;2023-04-15T15:15:59;12.80;60.00
802;DHT22;383;48.766;9.270;2023-04-15T15:18:27;12.60;59.30
802;DHT22;383;48.766;9.270;2023-04-15T15:20:54;12.50;59.80
802;DHT22;383;48.766;9.270;2023-04-15T15:23:20;12.50;60.20
802;DHT22;383;48.766;9.270;2023-04-15T15:25:47;12.40;60.40
802;DHT22;383;48.766;9.270;2023-04-15T15:28:14;12.40;61.70
802;DHT22;383;48.766;9.270;2023-04-15T15:30:41;12.40;60.20
802;DHT22;383;48.766;9.270;2023-04-15T15:33:07;12.20;60.50
802;DHT22;383;48.766;9.270;2023-04-15T15:35:35;12.10;62.10
802;DHT22;383;48.766;9.270;2023-04-15T15:38:02;12.00;62.60
802;DHT22;383;48.766;9.270;2023-04-15T15:40:29;11.90;63.70
802;DHT22;383;48.766;9.270;2023-04-15T15:42:55;11.80;65.50
802;DHT22;383;48.766;9.270;2023-04-15T15:45:22;11.60;66.40
802;DHT22;383;48.766;9.270;2023-04-15T15:47:49;11.50;68.70
802;DHT22;383;48.766;9.270;2023-04-15T15:50:16;11.40;71.30
802;DHT22;383;48.766;9.270;2023-04-15T15:52:44;11.40;70.90
802;DHT22;383;48.766;9.270;2023-04-15T15:55:10;11.30;69.50
802;DHT22;383;48.766;9.270;2023-04-15T15:57:37;11.20;71.70
802;DHT22;383;48.766;9.270;2023-04-15T16:00:05;11.20;71.30
802;DHT22;383;48.766;9.270;2023-04-15T16:02:32;11.10;70.10
802;DHT22;383;48.766;9.270;2023-04-15T16:04:58;11.10;71.60
802;DHT22;383;48.766;9.270;2023-04-15T16:07:25;11.00;72.30
802;DHT22;383;48.766;9.270;2023-04-15T16:09:53;10.90;72.60
802;DHT22;383;48.766;9.270;2023-04-15T16:12:20;10.90;73.60
802;DHT22;383;48.766;9.270;2023-04-15T16:14:47;10.80;75.70
802;DHT22;383;48.766;9.270;2023-04-15T16:17:13;10.70;76.30
802;DHT22;383;48.766;9.270;2023-04-15T16:19:40;10.60;78.50
802;DHT22;383;48.766;9.270;2023-04-15T16:22:07;10.50;80.60
802;DHT22;383;48.766;9.270;2023-04-15T16:24:33;10.50;81.80
802;DHT22;383;48.766;9.270;2023-04-15T16:27:01;10.40;84.00
802;DHT22;383;48.766;9.270;2023-04-15T16:29:28;10.30;84.50
802;DHT22;383;48.766;9.270;2023-04-15T16:31:55;10.30;87.10
802;DHT22;383;48.766;9.270;2023-04-15T16:34:21;10.30;88.20
802;DHT22;383;48.766;9.270;2023-04-15T16:36:48;10.20;88.40
802;DHT22;383;48.766;9.270;2023-04-15T16:39:15;10.20;89.80
802;DHT22;383;48.766;9.270;2023-04-15T16:41:41;10.20;90.10
802;DHT22;383;48.766;9.270;2023-04-15T16:44:09;10.20;90.60
802;DHT22;383;48.766;9.270;2023-04-15T16:46:36;10.10;90.60
802;DHT22;383;48.766;9.270;2023-04-15T16:49:03;10.20;91.00
802;DHT22;383;48.766;9.270;2023-04-15T16:51:29;10.00;91.00
802;DHT22;383;48.766;9.270;2023-04-15T16:53:57;10.00;92.00
802;DHT22;383;48.766;9.270;2023-04-15T16:56:24;9.90;91.80
802;DHT22;383;48.766;9.270;2023-04-15T16:58:50;9.90;92.80
802;DHT22;383;48.766;9.270;2023-04-15T17:01:19;9.80;93.00
802;DHT22;383;48.766;9.270;2023-04-15T17:03:46;9.70;94.10
802;DHT22;383;48.766;9.270;2023-04-15T17:06:14;9.70;94.00
802;DHT22;383;48.766;9.270;2023-04-15T17:08:42;9.60;95.00
802;DHT22;383;48.766;9.270;2023-04-15T17:11:08;9.50;95.30
802;DHT22;383;48.766;9.270;2023-04-15T17:13:35;9.60;96.00
802;DHT22;383;48.766;9.270;2023-04-15T17:16:02;9.60;96.40
802;DHT22;383;48.766;9.270;2023-04-15T17:18:30;9.70;96.40
802;DHT22;383;48.766;9.270;2023-04-15T17:20:57;9.70;96.90
802;DHT22;383;48.766;9.270;2023-04-15T17:23:24;9.60;97.10
802;DHT22;383;48.766;9.270;2023-04-15T17:25:51;9.70;97.60
802;DHT22;383;48.766;9.270;2023-04-15T17:28:18;9.70;97.50
802;DHT22;383;48.766;9.270;2023-04-15T17:30:44;9.70;97.50
802;DHT22;383;48.766;9.270;2023-04-15T17:33:11;9.70;97.50
802;DHT22;383;48.766;9.270;2023-04-15T17:35:39;9.70;97.40
802;DHT22;383;48.766;9.270;2023-04-15T17:38:06;9.70;97.90
802;DHT22;383;48.766;9.270;2023-04-15T17:40:33;9.60;97.80
802;DHT22;383;48.766;9.270;2023-04-15T17:42:59;9.50;97.60
802;DHT22;383;48.766;9.270;2023-04-15T17:45:26;9.50;98.20
802;DHT22;383;48.766;9.270;2023-04-15T17:47:53;9.50;98.50
802;DHT22;383;48.766;9.270;2023-04-15T17:50:19;9.50;98.00
802;DHT22;383;48.766;9.270;2023-04-15T17:52:47;9.50;98.20
802;DHT22;383;48.766;9.270;2023-04-15T17:55:14;9.50;98.20
802;DHT22;383;48.766;9.270;2023-04-15T17:57:41;9.50;97.90
802;DHT22;383;48.766;9.270;2023-04-15T18:00:09;9.50;98.10
802;DHT22;383;48.766;9.270;2023-04-15T18:02:36;9.50;98.10
802;DHT22;383;48.766;9.270;2023-04-15T18:05:03;9.50;98.50
802;DHT22;383;48.766;9.270;2023-04-15T18:07:30;9.50;98.20
802;DHT22;383;48.766;9.270;2023-04-15T18:09:58;9.60;98.30
802;DHT22;383;48.766;9.270;2023-04-15T18:12:25;9.50;97.80
802;DHT22;383;48.766;9.270;2023-04-15T18:14:52;9.50;98.10
802;DHT22;383;48.766;9.270;2023-04-15T18:17:18;9.60;97.80
802;DHT22;383;48.766;9.270;2023-04-15T18:19:45;9.60;97.80
802;DHT22;383;48.766;9.270;2023-04-15T18:22:12;9.60;97.50
802;DHT22;383;48.766;9.270;2023-04-15T18:24:39;9.50;97.40
802;DHT22;383;48.766;9.270;2023-04-15T18:27:07;9.50;97.80
802;DHT22;383;48.766;9.270;2023-04-15T18:29:33;9.50;98.30
802;DHT22;383;48.766;9.270;2023-04-15T18:32:00;9.50;98.00
802;DHT22;383;48.766;9.270;2023-04-15T18:34:27;9.40;97.70
802;DHT22;383;48.766;9.270;2023-04-15T18:36:54;9.50;98.30
802;DHT22;383;48.766;9.270;2023-04-15T18:39:21;9.40;98.40
802;DHT22;383;48.766;9.270;2023-04-15T18:41:48;9.30;98.80
802;DHT22;383;48.766;9.270;2023-04-15T18:44:16;9.40;98.90
802;DHT22;383;48.766;9.270;2023-04-15T18:46:43;9.30;99.40
802;DHT22;383;48.766;9.270;2023-04-15T18:49:10;9.40;99.70
802;DHT22;383;48.766;9.270;2023-04-15T18:51:37;9.40;99.30
802;DHT22;383;48.766;9.270;2023-04-15T18:54:04;9.50;99.20
802;DHT22;383;48.766;9.270;2023-04-15T18:56:31;9.40;99.50
802;DHT22;383;48.766;9.270;2023-04-15T18:58:57;9.40;99.90
802;DHT22;383;48.766;9.270;2023-04-15T19:01:25;9.40;99.90
802;DHT22;383;48.766;9.270;2023-04-15T19:03:52;9.50;99.90
802;DHT22;383;48.766;9.270;2023-04-15T19:06:19;9.50;99.40
802;DHT22;383;48.766;9.270;2023-04-15T19:08:46;9.40;99.90
802;DHT22;383;48.766;9.270;2023-04-15T19:11:13;9.50;99.80
802;DHT22;383;48.766;9.270;2023-04-15T19:13:40;9.50;99.50
802;DHT22;383;48.766;9.270;2023-04-15T19:16:06;9.50;99.50
802;DHT22;383;48.766;9.270;2023-04-15T19:18:34;9.50;99.50
802;DHT22;383;48.766;9.270;2023-04-15T19:21:01;9.40;99.90
802;DHT22;383;48.766;9.270;2023-04-15T19:23:29;9.40;99.90
802;DHT22;383;48.766;9.270;2023-04-15T19:25:56;9.40;99.90
802;DHT22;383;48.766;9.270;2023-04-15T19:28:23;9.50;99.70
802;DHT22;383;48.766;9.270;2023-04-15T19:30:52;9.40;99.90
802;DHT22;383;48.766;9.270;2023-04-15T19:33:19;9.50;99.90
802;DHT22;383;48.766;9.270;2023-04-15T19:35:47;9.50;99.60
802;DHT22;383;48.766;9.270;2023-04-15T19:38:14;9.50;99.90
802;DHT22;383;48.766;9.270;2023-04-15T19:40:41;9.50;99.90
802;DHT22;383;48.766;9.270;2023-04-15T19:43:07;9.40;99.60
802;DHT22;383;48.766;9.270;2023-04-15T19:45:34;9.40;99.70
802;DHT22;383;48.766;9.270;2023-04-15T19:48:01;9.40;99.90
802;DHT22;383;48.766;9.270;2023-04-15T19:50:28;9.40;99.90
802;DHT22;383;48.766;9.270;2023-04-15T19:52:56;9.40;99.90
802;DHT22;383;48.766;9.270;2023-04-15T19:55:22;9.40;99.90
802;DHT22;383;48.766;9.270;2023-04-15T19:57:49;9.50;99.90
802;DHT22;383;48.766;9.270;2023-04-15T20:00:16;9.50;99.90
802;DHT22;383;48.766;9.270;2023-04-15T20:02:42;9.40;99.90
802;DHT22;383;48.766;9.270;2023-04-15T20:05:09;9.50;99.70
802;DHT22;383;48.766;9.270;2023-04-15T20:07:36;9.50;99.70
802;DHT22;383;48.766;9.270;2023-04-15T20:10:08;9.50;99.80
802;DHT22;383;48.766;9.270;2023-04-15T20:12:37;9.50;99.90
802;DHT22;383;48.766;9.270;2023-04-15T20:15:05;9.40;99.70
802;DHT22;383;48.766;9.270;2023-04-15T20:17:32;9.30;99.90
802;DHT22;383;48.766;9.270;2023-04-15T20:19:59;9.30;99.90
802;DHT22;383;48.766;9.270;2023-04-15T20:22:25;9.30;99.90
802;DHT22;383;48.766;9.270;2023-04-15T20:24:52;9.40;99.90
802;DHT22;383;48.766;9.270;2023-04-15T20:27:20;9.40;99.90
802;DHT22;383;48.766;9.270;2023-04-15T20:29:48;9.40;99.90
802;DHT22;383;48.766;9.270;2023-04-15T20:32:16;9.40;99.90
802;DHT22;383;48.766;9.270;2023-04-15T20:34:42;9.40;99.90
802;DHT22;383;48.766;9.270;2023-04-15T20:37:09;9.30;99.90
802;DHT22;383;48.766;9.270;2023-04-15T20:39:36;9.40;99.90
802;DHT22;383;48.766;9.270;2023-04-15T20:42:03;9.30;99.90
802;DHT22;383;48.766;9.270;2023-04-15T20:44:35;9.40;99.90
802;DHT22;383;48.766;9.270;2023-04-15T20:47:03;9.40;99.90
802;DHT22;383;48.766;9.270;2023-04-15T20:49:32;9.40;99.90
802;DHT22;383;48.766;9.270;2023-04-15T20:51:59;9.30;99.90
802;DHT22;383;48.766;9.270;2023-04-15T20:54:25;9.30;99.90
802;DHT22;383;48.766;9.270;2023-04-15T20:56:52;9.20;99.90
802;DHT22;383;48.766;9.270;2023-04-15T20:59:19;9.20;99.90
802;DHT22;383;48.766;9.270;2023-04-15T21:01:47;9.20;99.90
802;DHT22;383;48.766;9.270;2023-04-15T21:04:13;9.20;99.90
802;DHT22;383;48.766;9.270;2023-04-15T21:06:40;9.30;99.90
802;DHT22;383;48.766;9.270;2023-04-15T21:09:07;9.30;99.90
802;DHT22;383;48.766;9.270;2023-04-15T21:11:34;9.20;99.90
802;DHT22;383;48.766;9.270;2023-04-15T21:14:00;9.30;99.90
802;DHT22;383;48.766;9.270;2023-04-15T21:16:27;9.30;99.90
802;DHT22;383;48.766;9.270;2023-04-15T21:18:55;9.40;99.90
802;DHT22;383;48.766;9.270;2023-04-15T21:21:22;9.30;99.90
802;DHT22;383;48.766;9.270;2023-04-15T21:23:49;9.40;99.90
802;DHT22;383;48.766;9.270;2023-04-15T21:26:15;9.40;99.90
802;DHT22;383;48.766;9.270;2023-04-15T21:28:42;9.40;99.90
802;DHT22;383;48.766;9.270;2023-04-15T21:31:09;9.30;99.90
802;DHT22;383;48.766;9.270;2023-04-15T21:33:36;9.30;99.90
802;DHT22;383;48.766;9.270;2023-04-15T21:36:04;9.40;99.90
802;DHT22;383;48.766;9.270;2023-04-15T21:38:31;9.30;99.90
802;DHT22;383;48.766;9.270;2023-04-15T21:40:58;9.30;99.90
802;DHT22;383;48.766;9.270;2023-04-15T21:43:25;9.30;99.90
802;DHT22;383;48.766;9.270;2023-04-15T21:45:52;9.20;99.90
802;DHT22;383;48.766;9.270;2023-04-15T21:48:19;9.20;99.90
802;DHT22;383;48.766;9.270;2023-04-15T21:50:46;9.10;99.90
802;DHT22;383;48.766;9.270;2023-04-15T21:53:14;9.20;99.90
802;DHT22;383;48.766;9.270;2023-04-15T21:55:40;9.30;99.90
802;DHT22;383;48.766;9.270;2023-04-15T21:58:07;9.30;99.90
802;DHT22;383;48.766;9.270;2023-04-15T22:00:34;9.30;99.90
802;DHT22;383;48.766;9.270;2023-04-15T22:03:01;9.40;99.90
802;DHT22;383;48.766;9.270;2023-04-15T22:05:27;9.30;99.90
802;DHT22;383;48.766;9.270;2023-04-15T22:07:54;9.30;99.90
802;DHT22;383;48.766;9.270;2023-04-15T22:10:23;9.40;99.90
802;DHT22;383;48.766;9.270;2023-04-15T22:12:50;9.40;99.90
802;DHT22;383;48.766;9.270;2023-04-15T22:15:17;9.40;99.90
802;DHT22;383;48.766;9.270;2023-04-15T22:17:44;9.40;99.90
802;DHT22;383;48.766;9.270;2023-04-15T22:20:11;9.40;99.90
802;DHT22;383;48.766;9.270;2023-04-15T22:22:38;9.40;99.90
802;DHT22;383;48.766;9.270;2023-04-15T22:25:05;9.40;99.90
802;DHT22;383;48.766;9.270;2023-04-15T22:27:33;9.40;99.90
802;DHT22;383;48.766;9.270;2023-04-15T22:30:00;9.40;99.90
802;DHT22;383;48.766;9.270;2023-04-15T22:32:27;9.40;99.90
802;DHT22;383;48.766;9.270;2023-04-15T22:34:54;9.40;99.90
802;DHT22;383;48.766;9.270;2023-04-15T22:37:20;9.30;99.90
802;DHT22;383;48.766;9.270;2023-04-15T22:39:48;9.40;99.90
802;DHT22;383;48.766;9.270;2023-04-15T22:42:15;9.40;99.90
802;DHT22;383;48.766;9.270;2023-04-15T22:44:43;9.40;99.90
802;DHT22;383;48.766;9.270;2023-04-15T22:47:10;9.40;99.90
802;DHT22;383;48.766;9.270;2023-04-15T22:49:36;9.50;99.90
802;DHT22;383;48.766;9.270;2023-04-15T22:52:04;9.50;99.90
802;DHT22;383;48.766;9.270;2023-04-15T22:54:31;9.50;99.90
802;DHT22;383;48.766;9.270;2023-04-15T22:56:57;9.60;99.90
802;DHT22;383;48.766;9.270;2023-04-15T22:59:24;9.50;99.90